sensor_id;sensor_type;location;lat;lon;timestamp;pressure;altitude;pressure_sealevel;temperature;humidity
38163;BME280;23977;53.078;18.248;2023-07-30T00:02:18;100378.53;;;18.44;100.00
38163;BME280;23977;53.078;18.248;2023-07-30T00:04:44;100364.22;;;18.25;100.00
38163;BME280;23977;53.078;18.248;2023-07-30T00:07:10;100365.84;;;18.26;100.00
38163;BME280;23977;53.078;18.248;2023-07-30T00:09:36;100373.66;;;18.35;100.00
38163;BME280;23977;53.078;18.248;2023-07-30T00:12:03;100383.34;;;18.42;100.00
38163;BME280;23977;53.078;18.248;2023-07-30T00:14:29;100380.91;;;18.34;100.00
38163;BME280;23977;53.078;18.248;2023-07-30T00:16:55;100384.47;;;18.28;100.00
38163;BME280;23977;53.078;18.248;2023-07-30T00:19:20;100378.41;;;18.14;100.00
38163;BME280;23977;53.078;18.248;2023-07-30T00:21:46;100376.41;;;18.28;100.00
38163;BME280;23977;53.078;18.248;2023-07-30T00:24:14;100379.34;;;18.45;100.00
38163;BME280;23977;53.078;18.248;2023-07-30T00:26:40;100379.84;;;18.35;100.00
38163;BME280;23977;53.078;18.248;2023-07-30T00:29:06;100370.91;;;18.41;100.00
38163;BME280;23977;53.078;18.248;2023-07-30T00:31:32;100389.25;;;18.51;100.00
38163;BME280;23977;53.078;18.248;2023-07-30T00:33:57;100403.31;;;18.53;100.00
38163;BME280;23977;53.078;18.248;2023-07-30T00:36:23;100402.78;;;18.44;100.00
38163;BME280;23977;53.078;18.248;2023-07-30T00:38:48;100397.63;;;18.43;100.00
38163;BME280;23977;53.078;18.248;2023-07-30T00:41:14;100405.66;;;18.24;100.00
38163;BME280;23977;53.078;18.248;2023-07-30T00:43:39;100402.75;;;18.26;100.00
38163;BME280;23977;53.078;18.248;2023-07-30T00:46:05;100399.84;;;18.27;100.00
38163;BME280;23977;53.078;18.248;2023-07-30T00:48:31;100394.81;;;18.31;100.00
38163;BME280;23977;53.078;18.248;2023-07-30T00:50:58;100394.22;;;18.29;100.00
38163;BME280;23977;53.078;18.248;2023-07-30T00:53:26;100399.19;;;18.32;100.00
38163;BME280;23977;53.078;18.248;2023-07-30T00:55:52;100395.91;;;17.98;100.00
38163;BME280;23977;53.078;18.248;2023-07-30T00:58:20;100401.44;;;18.03;100.00
38163;BME280;23977;53.078;18.248;2023-07-30T01:00:46;100413.34;;;18.21;100.00
38163;BME280;23977;53.078;18.248;2023-07-30T01:03:12;100404.13;;;18.03;100.00
38163;BME280;23977;53.078;18.248;2023-07-30T01:05:39;100405.28;;;18.21;100.00
38163;BME280;23977;53.078;18.248;2023-07-30T01:08:04;100415.94;;;18.09;100.00
38163;BME280;23977;53.078;18.248;2023-07-30T01:10:30;100421.97;;;18.04;100.00
38163;BME280;23977;53.078;18.248;2023-07-30T01:12:59;100419.09;;;17.99;100.00
38163;BME280;23977;53.078;18.248;2023-07-30T01:15:26;100418.22;;;18.05;100.00
38163;BME280;23977;53.078;18.248;2023-07-30T01:17:51;100416.56;;;18.04;100.00
38163;BME280;23977;53.078;18.248;2023-07-30T01:20:17;100411.19;;;18.04;100.00
38163;BME280;23977;53.078;18.248;2023-07-30T01:22:42;100402.09;;;18.05;100.00
38163;BME280;23977;53.078;18.248;2023-07-30T01:25:09;100424.81;;;18.09;100.00
38163;BME280;23977;53.078;18.248;2023-07-30T01:27:38;100399.44;;;17.99;100.00
38163;BME280;23977;53.078;18.248;2023-07-30T01:32:49;100419.88;;;18.06;100.00
38163;BME280;23977;53.078;18.248;2023-07-30T01:35:15;100410.97;;;18.06;100.00
38163;BME280;23977;53.078;18.248;2023-07-30T01:37:42;100420.47;;;18.08;100.00
38163;BME280;23977;53.078;18.248;2023-07-30T01:40:09;100410.75;;;18.07;100.00
38163;BME280;23977;53.078;18.248;2023-07-30T01:42:36;100414.75;;;17.98;100.00
38163;BME280;23977;53.078;18.248;2023-07-30T01:45:02;100428.13;;;18.11;100.00
38163;BME280;23977;53.078;18.248;2023-07-30T01:47:28;100421.53;;;18.07;100.00
38163;BME280;23977;53.078;18.248;2023-07-30T01:49:53;100412.94;;;17.85;100.00
38163;BME280;23977;53.078;18.248;2023-07-30T01:52:19;100430.97;;;18.17;100.00
38163;BME280;23977;53.078;18.248;2023-07-30T01:54:45;100424.06;;;18.02;100.00
38163;BME280;23977;53.078;18.248;2023-07-30T01:57:11;100421.53;;;18.07;100.00
38163;BME280;23977;53.078;18.248;2023-07-30T01:59:38;100398.75;;;18.03;100.00
38163;BME280;23977;53.078;18.248;2023-07-30T02:02:04;100428.97;;;18.12;100.00
38163;BME280;23977;53.078;18.248;2023-07-30T02:04:30;100411.97;;;18.11;100.00
38163;BME280;23977;53.078;18.248;2023-07-30T02:06:55;100414.91;;;18.03;100.00
38163;BME280;23977;53.078;18.248;2023-07-30T02:09:21;100408.81;;;17.83;100.00
38163;BME280;23977;53.078;18.248;2023-07-30T02:11:47;100413.97;;;17.84;100.00
38163;BME280;23977;53.078;18.248;2023-07-30T02:14:12;100430.72;;;17.93;100.00
38163;BME280;23977;53.078;18.248;2023-07-30T02:16:38;100403.84;;;17.80;100.00
38163;BME280;23977;53.078;18.248;2023-07-30T02:19:03;100422.88;;;17.85;100.00
38163;BME280;23977;53.078;18.248;2023-07-30T02:21:29;100440.31;;;17.82;100.00
38163;BME280;23977;53.078;18.248;2023-07-30T02:23:59;100422.78;;;17.66;100.00
38163;BME280;23977;53.078;18.248;2023-07-30T02:26:25;100439.44;;;17.82;100.00
38163;BME280;23977;53.078;18.248;2023-07-30T02:28:50;100439.22;;;17.90;100.00
38163;BME280;23977;53.078;18.248;2023-07-30T02:31:16;100444.78;;;17.95;100.00
38163;BME280;23977;53.078;18.248;2023-07-30T02:33:41;100443.16;;;17.94;100.00
38163;BME280;23977;53.078;18.248;2023-07-30T02:36:07;100441.88;;;17.97;100.00
38163;BME280;23977;53.078;18.248;2023-07-30T02:38:33;100441.06;;;17.96;100.00
38163;BME280;23977;53.078;18.248;2023-07-30T02:40:58;100442.63;;;18.10;100.00
38163;BME280;23977;53.078;18.248;2023-07-30T02:43:24;100435.41;;;18.04;100.00
38163;BME280;23977;53.078;18.248;2023-07-30T02:45:49;100452.19;;;18.06;100.00
38163;BME280;23977;53.078;18.248;2023-07-30T02:48:15;100447.69;;;17.93;100.00
38163;BME280;23977;53.078;18.248;2023-07-30T02:50:41;100436.53;;;17.90;100.00
38163;BME280;23977;53.078;18.248;2023-07-30T02:53:06;100449.75;;;17.98;100.00
38163;BME280;23977;53.078;18.248;2023-07-30T02:55:32;100445.00;;;18.00;100.00
38163;BME280;23977;53.078;18.248;2023-07-30T02:57:58;100451.38;;;18.06;100.00
38163;BME280;23977;53.078;18.248;2023-07-30T03:00:23;100452.53;;;18.17;100.00
38163;BME280;23977;53.078;18.248;2023-07-30T03:02:49;100455.44;;;18.15;100.00
38163;BME280;23977;53.078;18.248;2023-07-30T03:05:14;100450.19;;;18.27;100.00
38163;BME280;23977;53.078;18.248;2023-07-30T03:07:40;100450.78;;;18.29;100.00
38163;BME280;23977;53.078;18.248;2023-07-30T03:10:06;100442.25;;;18.07;100.00
38163;BME280;23977;53.078;18.248;2023-07-30T03:12:32;100434.72;;;18.16;100.00
38163;BME280;23977;53.078;18.248;2023-07-30T03:14:57;100437.97;;;18.24;100.00
38163;BME280;23977;53.078;18.248;2023-07-30T03:17:23;100438.34;;;18.28;100.00
38163;BME280;23977;53.078;18.248;2023-07-30T03:19:48;100440.34;;;18.14;100.00
38163;BME280;23977;53.078;18.248;2023-07-30T03:22:14;100444.66;;;18.15;100.00
38163;BME280;23977;53.078;18.248;2023-07-30T03:24:40;100448.78;;;18.18;100.00
38163;BME280;23977;53.078;18.248;2023-07-30T03:27:06;100433.44;;;18.18;100.00
38163;BME280;23977;53.078;18.248;2023-07-30T03:29:31;100447.94;;;18.24;100.00
38163;BME280;23977;53.078;18.248;2023-07-30T03:31:57;100451.59;;;18.29;100.00
38163;BME280;23977;53.078;18.248;2023-07-30T03:34:22;100442.94;;;18.27;100.00
38163;BME280;23977;53.078;18.248;2023-07-30T03:36:48;100452.16;;;18.38;100.00
38163;BME280;23977;53.078;18.248;2023-07-30T03:39:13;100446.56;;;18.40;100.00
38163;BME280;23977;53.078;18.248;2023-07-30T03:41:39;100443.31;;;18.31;100.00
38163;BME280;23977;53.078;18.248;2023-07-30T03:44:04;100450.31;;;18.39;100.00
38163;BME280;23977;53.078;18.248;2023-07-30T03:46:30;100440.63;;;18.31;100.00
38163;BME280;23977;53.078;18.248;2023-07-30T03:48:56;100453.97;;;18.44;100.00
38163;BME280;23977;53.078;18.248;2023-07-30T03:51:21;100446.66;;;18.52;100.00
38163;BME280;23977;53.078;18.248;2023-07-30T03:53:47;100440.25;;;18.53;100.00
38163;BME280;23977;53.078;18.248;2023-07-30T03:56:13;100451.78;;;18.60;100.00
38163;BME280;23977;53.078;18.248;2023-07-30T03:58:38;100429.84;;;18.56;100.00
38163;BME280;23977;53.078;18.248;2023-07-30T04:01:04;100459.06;;;18.84;100.00
38163;BME280;23977;53.078;18.248;2023-07-30T04:03:29;100443.34;;;18.75;100.00
38163;BME280;23977;53.078;18.248;2023-07-30T04:05:55;100457.81;;;18.80;100.00
38163;BME280;23977;53.078;18.248;2023-07-30T04:08:21;100454.06;;;18.81;100.00
38163;BME280;23977;53.078;18.248;2023-07-30T04:10:46;100466.50;;;18.82;100.00
38163;BME280;23977;53.078;18.248;2023-07-30T04:13:12;100459.69;;;18.80;100.00
38163;BME280;23977;53.078;18.248;2023-07-30T04:15:37;100448.69;;;18.81;100.00
38163;BME280;23977;53.078;18.248;2023-07-30T04:18:03;100461.03;;;18.96;100.00
38163;BME280;23977;53.078;18.248;2023-07-30T04:20:29;100455.19;;;18.99;100.00
38163;BME280;23977;53.078;18.248;2023-07-30T04:22:54;100432.25;;;18.90;100.00
38163;BME280;23977;53.078;18.248;2023-07-30T04:25:20;100471.22;;;19.12;100.00
38163;BME280;23977;53.078;18.248;2023-07-30T04:27:45;100475.13;;;19.16;100.00
38163;BME280;23977;53.078;18.248;2023-07-30T04:30:11;100489.19;;;19.18;100.00
38163;BME280;23977;53.078;18.248;2023-07-30T04:32:37;100480.06;;;19.19;100.00
38163;BME280;23977;53.078;18.248;2023-07-30T04:35:03;100491.06;;;19.36;100.00
38163;BME280;23977;53.078;18.248;2023-07-30T04:37:29;100492.81;;;19.31;100.00
38163;BME280;23977;53.078;18.248;2023-07-30T04:39:54;100481.09;;;19.18;100.00
38163;BME280;23977;53.078;18.248;2023-07-30T04:42:20;100494.84;;;19.35;100.00
38163;BME280;23977;53.078;18.248;2023-07-30T04:44:46;100495.06;;;19.34;100.00
38163;BME280;23977;53.078;18.248;2023-07-30T04:47:11;100497.47;;;19.42;100.00
38163;BME280;23977;53.078;18.248;2023-07-30T04:49:37;100488.69;;;19.47;100.00
38163;BME280;23977;53.078;18.248;2023-07-30T04:52:06;100495.22;;;19.39;100.00
38163;BME280;23977;53.078;18.248;2023-07-30T04:54:32;100494.00;;;19.53;100.00
38163;BME280;23977;53.078;18.248;2023-07-30T04:56:58;100495.50;;;19.68;100.00
38163;BME280;23977;53.078;18.248;2023-07-30T04:59:23;100487.53;;;19.73;100.00
38163;BME280;23977;53.078;18.248;2023-07-30T05:01:49;100495.19;;;19.94;100.00
38163;BME280;23977;53.078;18.248;2023-07-30T05:04:15;100507.00;;;20.12;100.00
38163;BME280;23977;53.078;18.248;2023-07-30T05:06:40;100504.16;;;20.07;100.00
38163;BME280;23977;53.078;18.248;2023-07-30T05:09:06;100498.41;;;20.15;100.00
38163;BME280;23977;53.078;18.248;2023-07-30T05:11:31;100507.19;;;19.99;100.00
38163;BME280;23977;53.078;18.248;2023-07-30T05:13:57;100507.72;;;19.89;100.00
38163;BME280;23977;53.078;18.248;2023-07-30T05:16:22;100512.53;;;19.87;100.00
38163;BME280;23977;53.078;18.248;2023-07-30T05:18:48;100516.06;;;19.87;100.00
38163;BME280;23977;53.078;18.248;2023-07-30T05:21:14;100509.00;;;19.86;100.00
38163;BME280;23977;53.078;18.248;2023-07-30T05:23:39;100514.56;;;20.03;100.00
38163;BME280;23977;53.078;18.248;2023-07-30T05:26:05;100509.94;;;20.10;100.00
38163;BME280;23977;53.078;18.248;2023-07-30T05:28:30;100505.59;;;20.21;100.00
38163;BME280;23977;53.078;18.248;2023-07-30T05:30:56;100513.84;;;20.26;100.00
38163;BME280;23977;53.078;18.248;2023-07-30T05:33:22;100512.47;;;20.36;100.00
38163;BME280;23977;53.078;18.248;2023-07-30T05:35:47;100504.94;;;20.38;100.00
38163;BME280;23977;53.078;18.248;2023-07-30T05:38:13;100518.59;;;20.43;100.00
38163;BME280;23977;53.078;18.248;2023-07-30T05:40:39;100514.38;;;20.35;100.00
38163;BME280;23977;53.078;18.248;2023-07-30T05:43:04;100511.44;;;20.48;100.00
38163;BME280;23977;53.078;18.248;2023-07-30T05:45:30;100525.16;;;20.89;100.00
38163;BME280;23977;53.078;18.248;2023-07-30T05:47:56;100523.97;;;21.32;100.00
38163;BME280;23977;53.078;18.248;2023-07-30T05:50:21;100533.94;;;21.67;100.00
38163;BME280;23977;53.078;18.248;2023-07-30T05:52:47;100532.22;;;21.90;100.00
38163;BME280;23977;53.078;18.248;2023-07-30T05:55:12;100537.34;;;22.03;100.00
38163;BME280;23977;53.078;18.248;2023-07-30T05:57:38;100528.97;;;22.05;100.00
38163;BME280;23977;53.078;18.248;2023-07-30T06:00:04;100535.63;;;21.97;100.00
38163;BME280;23977;53.078;18.248;2023-07-30T06:02:30;100526.66;;;21.96;100.00
38163;BME280;23977;53.078;18.248;2023-07-30T06:04:57;100534.50;;;22.10;100.00
38163;BME280;23977;53.078;18.248;2023-07-30T06:07:23;100536.41;;;22.09;100.00
38163;BME280;23977;53.078;18.248;2023-07-30T06:09:48;100544.19;;;22.34;100.00
38163;BME280;23977;53.078;18.248;2023-07-30T06:12:14;100539.31;;;22.48;100.00
38163;BME280;23977;53.078;18.248;2023-07-30T06:14:39;100534.94;;;22.81;98.32
38163;BME280;23977;53.078;18.248;2023-07-30T06:17:05;100539.13;;;23.06;94.88
38163;BME280;23977;53.078;18.248;2023-07-30T06:19:31;100525.84;;;23.43;94.74
38163;BME280;23977;53.078;18.248;2023-07-30T06:21:57;100517.31;;;24.28;91.69
38163;BME280;23977;53.078;18.248;2023-07-30T06:24:22;100524.56;;;24.77;89.29
38163;BME280;23977;53.078;18.248;2023-07-30T06:26:48;100543.94;;;25.23;85.56
38163;BME280;23977;53.078;18.248;2023-07-30T06:29:13;100541.94;;;25.08;83.32
38163;BME280;23977;53.078;18.248;2023-07-30T06:31:39;100536.41;;;24.98;83.25
38163;BME280;23977;53.078;18.248;2023-07-30T06:34:05;100532.03;;;24.97;83.43
38163;BME280;23977;53.078;18.248;2023-07-30T06:36:30;100526.81;;;25.28;83.88
38163;BME280;23977;53.078;18.248;2023-07-30T06:38:56;100532.59;;;26.05;79.86
38163;BME280;23977;53.078;18.248;2023-07-30T06:41:21;100526.91;;;26.32;76.92
38163;BME280;23977;53.078;18.248;2023-07-30T06:43:47;100528.44;;;25.92;78.54
38163;BME280;23977;53.078;18.248;2023-07-30T06:46:13;100520.00;;;25.94;76.56
38163;BME280;23977;53.078;18.248;2023-07-30T06:48:39;100525.66;;;25.66;76.96
38163;BME280;23977;53.078;18.248;2023-07-30T06:51:06;100531.00;;;26.30;77.98
38163;BME280;23977;53.078;18.248;2023-07-30T06:53:31;100531.00;;;26.30;74.76
38163;BME280;23977;53.078;18.248;2023-07-30T06:55:57;100510.72;;;25.90;73.54
38163;BME280;23977;53.078;18.248;2023-07-30T06:58:22;100529.34;;;26.03;74.40
38163;BME280;23977;53.078;18.248;2023-07-30T07:00:48;100528.03;;;26.72;75.40
38163;BME280;23977;53.078;18.248;2023-07-30T07:03:13;100527.91;;;28.04;70.54
38163;BME280;23977;53.078;18.248;2023-07-30T07:05:39;100523.31;;;28.39;65.46
38163;BME280;23977;53.078;18.248;2023-07-30T07:08:05;100529.50;;;28.90;65.10
38163;BME280;23977;53.078;18.248;2023-07-30T07:10:31;100533.84;;;28.62;66.01
38163;BME280;23977;53.078;18.248;2023-07-30T07:12:56;100532.69;;;27.83;67.07
38163;BME280;23977;53.078;18.248;2023-07-30T07:15:22;100528.50;;;27.31;68.87
38163;BME280;23977;53.078;18.248;2023-07-30T07:17:47;100530.22;;;27.82;69.62
38163;BME280;23977;53.078;18.248;2023-07-30T07:20:13;100523.53;;;29.36;64.21
38163;BME280;23977;53.078;18.248;2023-07-30T07:22:39;100521.28;;;29.62;62.68
38163;BME280;23977;53.078;18.248;2023-07-30T07:25:05;100492.47;;;30.74;56.51
38163;BME280;23977;53.078;18.248;2023-07-30T07:27:30;100524.53;;;30.92;56.03
38163;BME280;23977;53.078;18.248;2023-07-30T07:29:56;100526.16;;;30.27;56.66
38163;BME280;23977;53.078;18.248;2023-07-30T07:32:21;100526.13;;;29.70;59.75
38163;BME280;23977;53.078;18.248;2023-07-30T07:34:48;100530.31;;;29.87;60.84
38163;BME280;23977;53.078;18.248;2023-07-30T07:37:14;100522.88;;;31.52;57.39
38163;BME280;23977;53.078;18.248;2023-07-30T07:39:41;100513.31;;;34.40;48.90
38163;BME280;23977;53.078;18.248;2023-07-30T07:42:07;100514.38;;;37.27;43.02
38163;BME280;23977;53.078;18.248;2023-07-30T07:44:32;100505.50;;;39.19;37.32
38163;BME280;23977;53.078;18.248;2023-07-30T07:46:58;100495.53;;;37.20;39.35
38163;BME280;23977;53.078;18.248;2023-07-30T07:49:24;100503.75;;;34.38;44.35
38163;BME280;23977;53.078;18.248;2023-07-30T07:51:49;100520.59;;;31.82;49.81
38163;BME280;23977;53.078;18.248;2023-07-30T07:54:15;100508.34;;;30.44;55.18
38163;BME280;23977;53.078;18.248;2023-07-30T07:56:40;100513.91;;;28.85;57.79
38163;BME280;23977;53.078;18.248;2023-07-30T07:59:06;100498.03;;;27.68;63.16
38163;BME280;23977;53.078;18.248;2023-07-30T08:01:32;100543.81;;;27.22;64.53
38163;BME280;23977;53.078;18.248;2023-07-30T08:03:57;100541.94;;;26.81;67.54
38163;BME280;23977;53.078;18.248;2023-07-30T08:06:23;100533.78;;;26.91;66.38
38163;BME280;23977;53.078;18.248;2023-07-30T08:08:49;100537.56;;;26.59;68.16
38163;BME280;23977;53.078;18.248;2023-07-30T08:11:14;100522.84;;;26.81;68.65
38163;BME280;23977;53.078;18.248;2023-07-30T08:13:40;100529.31;;;27.37;66.79
38163;BME280;23977;53.078;18.248;2023-07-30T08:16:06;100539.16;;;27.22;66.52
38163;BME280;23977;53.078;18.248;2023-07-30T08:18:32;100544.34;;;27.39;64.44
38163;BME280;23977;53.078;18.248;2023-07-30T08:20:57;100527.97;;;27.99;63.99
38163;BME280;23977;53.078;18.248;2023-07-30T08:23:23;100533.94;;;28.46;62.18
38163;BME280;23977;53.078;18.248;2023-07-30T08:25:49;100535.53;;;28.52;61.62
38163;BME280;23977;53.078;18.248;2023-07-30T08:28:15;100547.63;;;28.46;61.93
38163;BME280;23977;53.078;18.248;2023-07-30T08:30:40;100524.75;;;28.95;60.36
38163;BME280;23977;53.078;18.248;2023-07-30T08:33:06;100556.03;;;28.89;59.35
38163;BME280;23977;53.078;18.248;2023-07-30T08:35:32;100549.53;;;28.11;61.79
38163;BME280;23977;53.078;18.248;2023-07-30T08:37:57;100542.34;;;27.60;63.87
38163;BME280;23977;53.078;18.248;2023-07-30T08:40:24;100554.63;;;28.97;61.20
38163;BME280;23977;53.078;18.248;2023-07-30T08:42:51;100550.00;;;33.31;51.27
38163;BME280;23977;53.078;18.248;2023-07-30T08:45:17;100537.81;;;37.05;41.30
38163;BME280;23977;53.078;18.248;2023-07-30T08:47:44;100545.47;;;41.53;31.63
38163;BME280;23977;53.078;18.248;2023-07-30T08:50:10;100538.19;;;41.21;32.62
38163;BME280;23977;53.078;18.248;2023-07-30T08:52:36;100537.47;;;40.16;32.89
38163;BME280;23977;53.078;18.248;2023-07-30T08:55:03;100551.22;;;38.30;34.66
38163;BME280;23977;53.078;18.248;2023-07-30T08:57:30;100555.00;;;35.68;38.63
38163;BME280;23977;53.078;18.248;2023-07-30T09:00:06;100539.78;;;34.68;41.87
38163;BME280;23977;53.078;18.248;2023-07-30T09:02:43;100543.78;;;35.65;39.62
38163;BME280;23977;53.078;18.248;2023-07-30T09:05:10;100553.56;;;35.32;39.65
38163;BME280;23977;53.078;18.248;2023-07-30T09:07:36;100542.03;;;37.36;36.82
38163;BME280;23977;53.078;18.248;2023-07-30T09:10:02;100547.03;;;39.80;33.10
38163;BME280;23977;53.078;18.248;2023-07-30T09:12:29;100533.91;;;42.49;29.32
38163;BME280;23977;53.078;18.248;2023-07-30T09:14:55;100526.84;;;43.73;27.53
38163;BME280;23977;53.078;18.248;2023-07-30T09:17:21;100525.06;;;42.09;28.54
38163;BME280;23977;53.078;18.248;2023-07-30T09:19:47;100535.38;;;42.36;29.12
38163;BME280;23977;53.078;18.248;2023-07-30T09:22:13;100534.75;;;43.50;27.93
38163;BME280;23977;53.078;18.248;2023-07-30T09:24:43;100530.34;;;44.55;26.24
38163;BME280;23977;53.078;18.248;2023-07-30T09:27:09;100537.66;;;43.68;26.86
38163;BME280;23977;53.078;18.248;2023-07-30T09:29:34;100538.34;;;44.34;27.60
38163;BME280;23977;53.078;18.248;2023-07-30T09:32:00;100543.84;;;44.13;27.08
38163;BME280;23977;53.078;18.248;2023-07-30T09:34:26;100545.25;;;43.67;27.60
38163;BME280;23977;53.078;18.248;2023-07-30T09:36:53;100536.47;;;43.72;27.59
38163;BME280;23977;53.078;18.248;2023-07-30T09:39:26;100521.72;;;43.79;27.22
38163;BME280;23977;53.078;18.248;2023-07-30T09:41:59;100540.88;;;43.11;27.98
38163;BME280;23977;53.078;18.248;2023-07-30T09:44:25;100555.31;;;40.11;30.65
38163;BME280;23977;53.078;18.248;2023-07-30T09:46:51;100517.97;;;38.78;32.33
38163;BME280;23977;53.078;18.248;2023-07-30T09:49:17;100543.19;;;38.57;32.35
38163;BME280;23977;53.078;18.248;2023-07-30T09:51:44;100548.69;;;37.47;35.16
38163;BME280;23977;53.078;18.248;2023-07-30T09:54:12;100546.41;;;37.49;35.66
38163;BME280;23977;53.078;18.248;2023-07-30T09:56:40;100548.88;;;36.80;35.96
38163;BME280;23977;53.078;18.248;2023-07-30T09:59:07;100555.84;;;35.30;38.45
38163;BME280;23977;53.078;18.248;2023-07-30T10:01:37;100555.06;;;34.74;40.08
38163;BME280;23977;53.078;18.248;2023-07-30T10:04:07;100533.13;;;34.07;40.41
38163;BME280;23977;53.078;18.248;2023-07-30T10:06:39;100555.59;;;33.48;41.40
38163;BME280;23977;53.078;18.248;2023-07-30T10:09:07;100533.47;;;32.99;42.45
38163;BME280;23977;53.078;18.248;2023-07-30T10:11:35;100543.38;;;35.24;40.56
38163;BME280;23977;53.078;18.248;2023-07-30T10:14:01;100533.41;;;36.04;38.01
38163;BME280;23977;53.078;18.248;2023-07-30T10:16:30;100524.22;;;37.25;35.81
38163;BME280;23977;53.078;18.248;2023-07-30T10:18:57;100535.00;;;37.91;34.88
38163;BME280;23977;53.078;18.248;2023-07-30T10:21:26;100531.66;;;36.87;36.66
38163;BME280;23977;53.078;18.248;2023-07-30T10:24:03;100532.22;;;35.92;36.78
38163;BME280;23977;53.078;18.248;2023-07-30T10:26:33;100520.50;;;34.97;38.78
38163;BME280;23977;53.078;18.248;2023-07-30T10:29:19;100526.50;;;33.42;41.37
38163;BME280;23977;53.078;18.248;2023-07-30T10:31:56;100541.00;;;33.56;43.70
38163;BME280;23977;53.078;18.248;2023-07-30T10:34:26;100534.75;;;33.25;43.03
38163;BME280;23977;53.078;18.248;2023-07-30T10:36:55;100533.13;;;33.24;43.38
38163;BME280;23977;53.078;18.248;2023-07-30T10:39:25;100544.94;;;33.24;42.08
38163;BME280;23977;53.078;18.248;2023-07-30T10:41:56;100540.25;;;32.93;43.36
38163;BME280;23977;53.078;18.248;2023-07-30T10:44:27;100538.41;;;33.11;42.89
38163;BME280;23977;53.078;18.248;2023-07-30T10:46:54;100541.34;;;32.38;44.61
38163;BME280;23977;53.078;18.248;2023-07-30T10:49:20;100533.69;;;32.35;43.73
38163;BME280;23977;53.078;18.248;2023-07-30T10:51:46;100540.59;;;32.69;44.40
38163;BME280;23977;53.078;18.248;2023-07-30T10:54:12;100539.84;;;32.55;45.06
38163;BME280;23977;53.078;18.248;2023-07-30T10:56:38;100547.28;;;32.32;45.48
38163;BME280;23977;53.078;18.248;2023-07-30T10:59:05;100532.69;;;32.54;42.93
38163;BME280;23977;53.078;18.248;2023-07-30T11:01:43;100535.97;;;31.97;43.64
38163;BME280;23977;53.078;18.248;2023-07-30T11:04:19;100525.84;;;31.69;45.17
38163;BME280;23977;53.078;18.248;2023-07-30T11:06:46;100542.31;;;31.42;45.24
38163;BME280;23977;53.078;18.248;2023-07-30T11:09:19;100537.00;;;31.04;46.40
38163;BME280;23977;53.078;18.248;2023-07-30T11:11:46;100535.50;;;31.25;46.93
38163;BME280;23977;53.078;18.248;2023-07-30T11:14:19;100536.41;;;31.07;45.45
38163;BME280;23977;53.078;18.248;2023-07-30T11:16:51;100501.75;;;30.78;46.72
38163;BME280;23977;53.078;18.248;2023-07-30T11:19:17;100526.78;;;30.90;48.40
38163;BME280;23977;53.078;18.248;2023-07-30T11:21:48;100530.22;;;30.82;48.05
38163;BME280;23977;53.078;18.248;2023-07-30T11:24:14;100535.81;;;31.10;47.50
38163;BME280;23977;53.078;18.248;2023-07-30T11:26:40;100531.69;;;30.93;46.95
38163;BME280;23977;53.078;18.248;2023-07-30T11:29:16;100513.91;;;31.05;45.70
38163;BME280;23977;53.078;18.248;2023-07-30T11:31:43;100522.75;;;31.02;45.92
38163;BME280;23977;53.078;18.248;2023-07-30T11:34:09;100508.63;;;30.75;46.29
38163;BME280;23977;53.078;18.248;2023-07-30T11:36:36;100508.28;;;30.30;47.91
38163;BME280;23977;53.078;18.248;2023-07-30T11:39:01;100509.63;;;30.66;50.62
38163;BME280;23977;53.078;18.248;2023-07-30T11:41:28;100519.00;;;30.65;47.43
38163;BME280;23977;53.078;18.248;2023-07-30T11:43:54;100529.63;;;30.85;46.91
38163;BME280;23977;53.078;18.248;2023-07-30T11:46:20;100520.88;;;30.50;46.24
38163;BME280;23977;53.078;18.248;2023-07-30T11:48:49;100515.13;;;30.66;46.81
38163;BME280;23977;53.078;18.248;2023-07-30T11:51:28;100503.09;;;30.29;48.05
38163;BME280;23977;53.078;18.248;2023-07-30T11:53:58;100501.59;;;30.17;47.85
38163;BME280;23977;53.078;18.248;2023-07-30T11:56:29;100513.84;;;30.06;48.63
38163;BME280;23977;53.078;18.248;2023-07-30T11:59:01;100507.50;;;29.67;48.61
38163;BME280;23977;53.078;18.248;2023-07-30T12:01:33;100502.25;;;29.71;47.65
38163;BME280;23977;53.078;18.248;2023-07-30T12:04:04;100502.31;;;29.47;47.60
38163;BME280;23977;53.078;18.248;2023-07-30T12:06:41;100481.66;;;29.06;50.85
38163;BME280;23977;53.078;18.248;2023-07-30T12:09:11;100491.44;;;29.12;49.82
38163;BME280;23977;53.078;18.248;2023-07-30T12:11:48;100490.50;;;28.98;48.55
38163;BME280;23977;53.078;18.248;2023-07-30T12:14:15;100499.47;;;28.79;48.48
38163;BME280;23977;53.078;18.248;2023-07-30T12:16:41;100483.56;;;28.82;51.03
38163;BME280;23977;53.078;18.248;2023-07-30T12:19:06;100483.38;;;28.73;51.10
38163;BME280;23977;53.078;18.248;2023-07-30T12:21:32;100483.84;;;28.80;49.74
38163;BME280;23977;53.078;18.248;2023-07-30T12:23:58;100492.44;;;28.68;48.45
38163;BME280;23977;53.078;18.248;2023-07-30T12:26:24;100456.97;;;28.53;48.89
38163;BME280;23977;53.078;18.248;2023-07-30T12:28:49;100476.94;;;28.53;50.75
38163;BME280;23977;53.078;18.248;2023-07-30T12:31:15;100483.47;;;28.28;49.85
38163;BME280;23977;53.078;18.248;2023-07-30T12:33:41;100470.81;;;28.32;47.81
38163;BME280;23977;53.078;18.248;2023-07-30T12:36:07;100470.88;;;28.27;49.83